Record high temperature 107.1°F Record low temperature 10.6°F Record high gust 49.5 mph Record high average 23.3 mph Record daily rain 11.65 in. Record low windchill 2.7°F Record high barometer 30.818 in. Record low barometer 29.117 in.
Daily high pressure 30.382 in. Daily low pressure 30.373 in. Daily low windchill 50.6°F Daily high heat index 52.1°F Daily high gust speed 0.0 mph ENE Daily high average speed 0.0 mph SE
On the Greenway Weather data
LAST READING AT TIME: 1:45 AM DATE: September 25 2016, time of next update: 1:46 am
Current WeatherNight time/Dry/Clear skies Current Temperature 50.6°F (10.3°C), Apparent temp 50.4°F
Maximum Temperature (since midnight)52.1°F at: 12:00 AM Minimum Temperature (since midnight)50.6°F at: 1:40 AM
Average windspeed (ten minute)0.0 mph Wind Direction (ten minute)E (90°)
Windchill Temperature 50.6°F Maximum Gust (last hour)0.0 mph at: 1:00 AM
Maximum Gust (since midnight)0.0 mph at: 11:24 AM Maximum 1 minute average (since midnight)0.0 mph at: 1:29 PM
Rainfall (last hour)0.00 in. (0.0 mm) Rainfall (since midnight)0.00 in. (0.0 mm) ---
Rainfall This month 1.35 in. (34.3 mm) Rainfall To date this year 53.22 in. (1351.8 mm)
Maximum rain per minute (last hour)0.00 in/min Maximum rain per hour (last 6 hours)0.00 in/hour
Yesterdays rainfall 0.00 in DewPoint 46.9°F (Wet Bulb :48.8°F )
Humidity 87 %, Humidex 51.5°F Barometer corrected to msl30.376 in. (1028.7 hPa)
Pressure change -0.00 in. (last hour) Trend (last hour)STEADY
Pressure change (last 12 hours)+0.03 in Pressure change (last 6 hours)+0.06 in
Current Indoor Temp. 84.3°F
Current Indoor Hum. 30%
Current Solar 0 W/Mē
Maximum solar (since midnight) 0 W/Mē Minimum solar (since midnight)0 W/Mē
Current 00:00 hours of sunshine today, current sky: Night time/Dry/Clear skies
Sunshine hours for the year: 00:00 hrs Sunshine hours for the month: 00:00 hrs
Current evapotranspiration 0.01 inches per day. Yesterday's reading 0.02

This page is updated from recent data collected by a DAVIS VANTAGE PRO weather station Use the Reload or Refresh facility on your browser to retrieve the latest data.


Click here for the last 24 hour graph
Click here for the last 48 hour graph
Click here for the last 72 hour graph
Click here for the month to date graph


Weather report/warning/Metars

Expires:201609251115;;924652
FPUS56 KPQR 250340
ZFPPQR

ZONE FORECASTS FOR NORTHWEST OREGON AND SOUTHWEST WASHINGTON
NATIONAL WEATHER SERVICE PORTLAND OREGON
840 PM PDT SAT SEP 24 2016

SPOT TEMPERATURES ARE FOR TONIGHT...SUNDAY...SUNDAY NIGHT...MONDAY...
MONDAY NIGHT...AND TUESDAY.


ORZ006-WAZ039-251115-
GREATER PORTLAND METRO AREA-GREATER VANCOUVER AREA-
INCLUDING THE CITIES OF...HILLSBORO...PORTLAND...WILSONVILLE...
OREGON CITY...GRESHAM...TROUTDALE...VANCOUVER...BATTLE GROUND...
RIDGEFIELD...WASHOUGAL...YACOLT...AMBOY
840 PM PDT SAT SEP 24 2016

.TONIGHT...MOSTLY CLEAR. AREAS OF FOG LATE. LOWS 45 TO 50. LIGHT
WIND. 
.SUNDAY...PARTLY CLOUDY IN THE MORNING...THEN MOSTLY SUNNY. AREAS OF
MORNING FOG. HIGHS 80 TO 85. NORTH WIND 5 TO 10 MPH. 
.SUNDAY NIGHT...CLEAR. AREAS OF FOG AFTER MIDNIGHT. LOWS 50 TO 55.
NORTH WIND 5 TO 10 MPH. 
.MONDAY...MOSTLY SUNNY. AREAS OF MORNING FOG. HIGHS AROUND 85. NORTH
WIND 5 TO 10 MPH. 
.MONDAY NIGHT...CLEAR IN THE EVENING...THEN PARTLY CLOUDY. LOWS
50 TO 55. NORTHWEST WIND 5 TO 10 MPH. 
.TUESDAY...MOSTLY CLOUDY IN THE MORNING...THEN PARTLY CLOUDY. SLIGHT
CHANCE OF DRIZZLE IN THE MORNING. HIGHS 70 TO 75. 
.TUESDAY NIGHT...PARTLY CLOUDY. LOWS 45 TO 50. 
.WEDNESDAY...PARTLY CLOUDY IN THE MORNING...THEN MOSTLY SUNNY. HIGHS
AROUND 70. 
.WEDNESDAY NIGHT...MOSTLY CLEAR IN THE EVENING...THEN MOSTLY CLOUDY.
PATCHY FOG AFTER MIDNIGHT. LOWS 45 TO 50. 
.THURSDAY...PARTLY SUNNY. PATCHY MORNING FOG. HIGHS 65 TO 70. 
.THURSDAY NIGHT...PARTLY CLOUDY IN THE EVENING...THEN MOSTLY CLOUDY
WITH A 20 PERCENT CHANCE OF SHOWERS AFTER MIDNIGHT. LOWS AROUND 45. 
.FRIDAY...MOSTLY CLOUDY. SLIGHT CHANCE OF SHOWERS IN THE MORNING...
THEN A CHANCE OF SHOWERS IN THE AFTERNOON. HIGHS AROUND 65. CHANCE
OF PRECIPITATION 40 PERCENT. 
.FRIDAY NIGHT...CLOUDY WITH A 50 PERCENT CHANCE OF SHOWERS. LOWS
45 TO 50. 
.SATURDAY...CLOUDY WITH A 50 PERCENT CHANCE OF SHOWERS. HIGHS 60 TO
65. 

&&
                    TEMPERATURE           
PORTLAND          51  84  55  86  58  73
HILLSBORO         45  83  48  87  53  73

$$
=


PORTLAND-HILLSBORO AIRPORT, OR, United States (KHIO) 45-33N 122-57W 68M
Sep 25, 2016 - 03:53 AM EDT / 2016.09.25 0753 UTC
Wind: Calm:0
Visibility: 10 mile(s):0
Sky conditions: overcast
Temperature: 53.1 F (11.7 C)
Dew Point: 51.1 F (10.6 C)
Relative Humidity: 92%
Pressure (altimeter): 30.38 in. Hg (1028 hPa)
ob: KHIO 250753Z AUTO 00000KT 10SM OVC065 12/11 A3038 RMK AO2 SLP286 T01170106 402170072
cycle: 8
PORTLAND INTERNATIONAL  AIRPORT, OR, United States (KPDX) 45-35N 122-36W 7M
Sep 25, 2016 - 03:53 AM EDT / 2016.09.25 0753 UTC
Wind: Calm:0
Visibility: 10 mile(s):0
Sky conditions: mostly cloudy
Temperature: 55.9 F (13.3 C)
Dew Point: 50.0 F (10.0 C)
Relative Humidity: 80%
Pressure (altimeter): 30.39 in. Hg (1029 hPa)
ob: KPDX 250753Z 00000KT 10SM BKN065 13/10 A3039 RMK AO2 SLP289 T01330100 402110111
cycle: 8
PORTLAND-TROUTDALE AIRPORT, OR, United States (KTTD) 45-33N 122-25W 14M
Sep 25, 2016 - 03:53 AM EDT / 2016.09.25 0753 UTC
Wind: Calm:0
Visibility: 10 mile(s):0
Sky conditions: overcast
Temperature: 54.0 F (12.2 C)
Dew Point: 48.9 F (9.4 C)
Relative Humidity: 82%
Pressure (altimeter): 30.39 in. Hg (1029 hPa)
ob: KTTD 250753Z AUTO 00000KT 10SM OVC070 12/09 A3039 RMK AO2 SLP289 T01220094 402110094
cycle: 8
MCMINNVILLE MUNICIPAL AIRPORT , OR, United States (KMMV) 45-12N 123-08W 48M
Sep 25, 2016 - 03:53 AM EDT / 2016.09.25 0753 UTC
Wind: Calm:0
Visibility: 10 mile(s):0
Sky conditions: clear
Temperature: 53.1 F (11.7 C)
Dew Point: 44.1 F (6.7 C)
Relative Humidity: 71%
Pressure (altimeter): 30.4 in. Hg (1029 hPa)
ob: KMMV 250753Z AUTO 00000KT 10SM CLR 12/07 A3040 RMK AO2 SLP292 T01170067 402220044
cycle: 8
SALEM MCNARY FIELD, OR, United States (KSLE) 44-54N 123-00W 59M
Sep 25, 2016 - 03:56 AM EDT / 2016.09.25 0756 UTC
Wind: Calm:0
Visibility: 10 mile(s):0
Sky conditions: clear
Temperature: 53.1 F (11.7 C)
Dew Point: 46.0 F (7.8 C)
Relative Humidity: 76%
Pressure (altimeter): 30.37 in. Hg (1028 hPa)
ob: KSLE 250756Z AUTO 00000KT 10SM CLR 12/08 A3037 RMK AO2 SLP284 T01170078 402170078
cycle: 8
REDMOND ROBERTS FIELD, OR, United States (KRDM) 44-15N 121-08W
Sep 25, 2016 - 03:56 AM EDT / 2016.09.25 0756 UTC
Wind: from the SSE (160 degrees) at 6 MPH (5 KT):0
Visibility: 10 mile(s):0
Sky conditions: clear
Temperature: 46.0 F (7.8 C)
Dew Point: 21.9 F (-5.6 C)
Relative Humidity: 38%
Pressure (altimeter): 30.42 in. Hg (1030 hPa)
ob: KRDM 250756Z AUTO 16005KT 10SM CLR 08/M06 A3042 RMK AO2 SLP294 T00781056 402221006
cycle: 8

Date: 9/25/2016
Sunrise at:
07:02 am

Sunset at:
07:03 pm

Moonrise at:
01:35 am 09/25/16

Moonset at:
04:16 pm 09/25/16

First Quarter  September 9 2016
Full moon  September 16 2016
Last QuarterSeptember 23 2016
New moon October 1 2016
Moon age: 24 days,2 hours,8 minutes,30%
Hours of possible daylight today was 12:01:00



Use the RELOAD facility on your browser to retrieve the latest data.

Click here for current Fire weather info
Click here for the daily CLIMATOLOGICAL SUMMARY
Click here for a daily update of the averages/extremes to date for the month




Created by "Weather Display" software version 10.37R at this start time/date 10:11:23 AM 9/23/2016




On The Greenway Weather Web Site

 
 
HELP US OUT
Help us keep this weather station on the web. for the Tigard / Portland internet users to use. If you would like to help, click the donate button below
 
This site is purely funded by donations and by myself (Ray Cooper)
Anything you can do will help keep this station on the net
Average cost per year is $665 to publish and host this site excluding the cost of the weather equipment
Buyastrostuff.com is kind enough to host our DNS and email at no cost.
THANKS GUYS & Gals for helping
Have a Question,or just want to talk. Contact me at:
Ray Cooper @ Buyastrostuff.com
 

Weather Underground PWS KORTIGAR12 Weather Underground PWS KORTIGAR12